Time;durP1;ratioP1;P1;durP2;ratioP2;P2;SDS_P1;SDS_P2;PMS_P1;PMS_P2;Temp;Humidity;BMP_temperature;BMP_pressure;BME280_temperature;BME280_humidity;BME280_pressure;Samples;Min_cycle;Max_cycle;Signal;HPM_P1;HPM_P2
2023/01/12 00:01:20;;;;;;;13.73;3.00;;;;;;;6.89;100.00;100861.53;5242943;28;20033;-71
2023/01/12 00:03:52;;;;;;;19.13;4.73;;;;;;;6.89;100.00;100871.91;5242660;28;20057;-71
2023/01/12 00:06:24;;;;;;;13.73;3.72;;;;;;;6.82;100.00;100874.47;5242845;28;20264;-71
2023/01/12 00:08:56;;;;;;;12.13;2.90;;;;;;;6.85;100.00;100867.56;5241726;28;20026;-71
2023/01/12 00:11:27;;;;;;;12.23;3.53;;;;;;;6.86;100.00;100882.25;5242380;28;20036;-71
2023/01/12 00:13:59;;;;;;;15.67;3.70;;;;;;;6.92;100.00;100878.81;5243286;28;20365;-71
2023/01/12 00:16:33;;;;;;;12.87;4.80;;;;;;;6.93;100.00;100875.38;5242406;28;20034;-72
2023/01/12 00:19:15;;;;;;;12.52;4.35;;;;;;;6.95;100.00;100871.06;5242547;28;20380;-72
2023/01/12 00:22:13;;;;;;;13.80;4.53;;;;;;;6.89;100.00;100858.06;5241930;28;20029;-73
2023/01/12 00:24:48;;;;;;;19.05;4.05;;;;;;;6.92;100.00;100864.16;5243204;28;20091;-71
2023/01/12 00:27:20;;;;;;;22.73;4.25;;;;;;;6.95;100.00;100858.09;5242425;28;20029;-72
2023/01/12 00:29:52;;;;;;;23.83;4.90;;;;;;;7.00;100.00;100855.53;5242102;28;20037;-72
2023/01/12 00:32:23;;;;;;;20.37;4.77;;;;;;;7.01;100.00;100857.25;5242604;28;20369;-72
2023/01/12 00:34:54;;;;;;;19.37;5.50;;;;;;;7.01;100.00;100855.53;5242413;28;20033;-73
2023/01/12 00:37:26;;;;;;;27.70;5.20;;;;;;;7.03;100.00;100845.16;5242351;28;20068;-72
2023/01/12 00:39:57;;;;;;;17.83;4.03;;;;;;;7.03;100.00;100833.06;5242442;28;20041;-73
2023/01/12 00:45:21;;;;;;;22.98;5.90;;;;;;;7.08;100.00;100835.66;5241910;28;20112;-72
2023/01/12 00:47:53;;;;;;;18.00;5.10;;;;;;;7.09;100.00;100829.63;5242926;28;20030;-72
2023/01/12 00:50:24;;;;;;;14.10;4.10;;;;;;;7.11;100.00;100831.34;5242249;28;20075;-71
2023/01/12 00:52:56;;;;;;;18.53;5.30;;;;;;;7.10;100.00;100827.06;5242117;28;20033;-71
2023/01/12 00:55:27;;;;;;;21.30;4.97;;;;;;;7.09;100.00;100827.91;5242092;28;20033;-71
2023/01/12 00:57:58;;;;;;;17.43;4.40;;;;;;;7.07;100.00;100821.84;5242636;28;20026;-72
2023/01/12 01:00:30;;;;;;;28.13;5.20;;;;;;;7.07;100.00;100821.00;5241768;28;20045;-72
2023/01/12 01:03:01;;;;;;;20.03;5.10;;;;;;;7.11;100.00;100801.97;5241013;28;20057;-73
2023/01/12 01:05:32;;;;;;;21.93;5.13;;;;;;;7.08;100.00;100809.75;5241967;28;20029;-73
2023/01/12 01:08:04;;;;;;;18.67;5.27;;;;;;;7.10;100.00;100795.09;5242261;28;20038;-73
2023/01/12 01:10:35;;;;;;;25.17;6.50;;;;;;;7.06;100.00;100794.19;5241828;28;20033;-72
2023/01/12 01:13:07;;;;;;;25.10;5.03;;;;;;;7.06;100.00;100791.59;5242397;28;20385;-74
2023/01/12 01:15:38;;;;;;;22.83;5.97;;;;;;;7.09;100.00;100796.78;5242101;28;20469;-74
2023/01/12 01:18:09;;;;;;;19.87;6.13;;;;;;;7.03;100.00;100793.31;5241764;28;20029;-73
2023/01/12 01:20:45;;;;;;;15.93;4.90;;;;;;;7.08;100.00;100792.50;5242665;28;20043;-72
2023/01/12 01:23:17;;;;;;;24.92;6.63;;;;;;;7.08;100.00;100794.19;5241359;28;20022;-73
2023/01/12 01:25:48;;;;;;;32.17;6.07;;;;;;;7.09;100.00;100776.06;5240564;28;20126;-73
2023/01/12 01:28:20;;;;;;;23.10;6.37;;;;;;;7.12;100.00;100782.97;5241762;28;20487;-73
2023/01/12 01:30:52;;;;;;;24.80;5.20;;;;;;;7.11;100.00;100776.91;5241324;28;20025;-74
2023/01/12 01:33:24;;;;;;;31.00;7.63;;;;;;;7.10;100.00;100788.16;5244712;28;20036;-73
2023/01/12 01:35:56;;;;;;;22.90;6.35;;;;;;;7.11;100.00;100773.47;5245830;28;20117;-73
2023/01/12 01:38:28;;;;;;;22.63;5.63;;;;;;;7.08;100.00;100768.28;5244584;28;20030;-73
2023/01/12 01:40:59;;;;;;;27.27;5.90;;;;;;;7.10;100.00;100776.94;5245842;28;20033;-73
2023/01/12 01:43:56;;;;;;;37.27;6.20;;;;;;;7.09;100.00;100785.56;5245700;28;20029;-73
2023/01/12 01:46:48;;;;;;;30.67;5.80;;;;;;;7.12;100.00;100773.47;5245957;28;20040;-73
2023/01/12 01:49:37;;;;;;;25.42;5.72;;;;;;;7.11;100.00;100784.69;5245847;28;20045;-73
2023/01/12 01:52:17;;;;;;;20.27;6.72;;;;;;;7.14;100.00;100746.69;5244518;28;20037;-73
2023/01/12 01:55:32;;;;;;;22.58;6.32;;;;;;;7.12;100.00;100746.69;5245841;28;20022;-72
2023/01/12 01:58:11;;;;;;;20.30;5.68;;;;;;;7.08;100.00;100747.53;5243646;28;20046;-75
2023/01/12 02:00:43;;;;;;;21.52;5.43;;;;;;;7.08;100.00;100732.88;5242941;28;20476;-73
2023/01/12 02:03:16;;;;;;;34.50;9.23;;;;;;;7.04;100.00;100725.94;5235699;28;20084;-73
2023/01/12 02:05:48;;;;;;;26.60;5.78;;;;;;;7.02;100.00;100717.31;5245301;28;20037;-73
2023/01/12 02:08:33;;;;;;;28.05;6.22;;;;;;;7.08;100.00;100721.63;5245611;28;20041;-73
2023/01/12 02:16:19;;;;;;;25.38;6.07;;;;;;;7.05;100.00;100719.03;5245269;28;20026;-72
2023/01/12 02:17:14;;;;;;;30.65;6.45;;;;;;;7.10;100.00;100709.53;5245383;28;20045;-74
2023/01/12 02:20:16;;;;;;;25.23;6.18;;;;;;;7.08;100.00;100717.31;5244794;28;20120;-72
2023/01/12 02:23:05;;;;;;;27.67;5.85;;;;;;;7.12;100.00;100718.19;5245312;28;20072;-73
2023/01/12 02:26:12;;;;;;;28.00;6.13;;;;;;;7.12;100.00;100703.47;5244723;28;20049;-73
2023/01/12 02:29:13;;;;;;;30.77;6.32;;;;;;;7.07;100.00;100717.31;5244670;28;20116;-75
2023/01/12 02:31:55;;;;;;;27.95;6.20;;;;;;;7.08;100.00;100698.28;5244992;28;20026;-73
2023/01/12 02:34:35;;;;;;;37.33;5.35;;;;;;;7.09;100.00;100690.50;5245394;28;20527;-72
2023/01/12 02:37:27;;;;;;;26.42;6.43;;;;;;;7.15;100.00;100704.34;5245253;28;20032;-72
2023/01/12 02:40:29;;;;;;;28.38;5.78;;;;;;;7.19;100.00;100681.00;5245444;28;20034;-73
2023/01/12 02:43:24;;;;;;;28.63;5.95;;;;;;;7.20;100.00;100682.75;5244159;28;20049;-72
2023/01/12 02:46:14;;;;;;;27.05;6.93;;;;;;;7.19;100.00;100670.63;5244026;28;20043;-73
2023/01/12 02:48:55;;;;;;;24.85;5.22;;;;;;;7.21;100.00;100676.72;5244552;28;20033;-73
2023/01/12 02:51:33;;;;;;;18.23;5.43;;;;;;;7.22;100.00;100672.38;5245064;28;20053;-74
2023/01/12 02:54:09;;;;;;;28.90;6.30;;;;;;;7.24;100.00;100678.41;5244388;28;20068;-73
2023/01/12 02:56:47;;;;;;;23.88;5.45;;;;;;;7.25;100.00;100675.81;5244865;28;20121;-73
2023/01/12 02:59:33;;;;;;;20.77;7.07;;;;;;;7.25;100.00;100674.97;5244445;28;20025;-73
2023/01/12 03:02:09;;;;;;;18.23;4.45;;;;;;;7.24;100.00;100648.16;5244354;28;20038;-75
2023/01/12 03:04:41;;;;;;;18.67;5.68;;;;;;;7.24;100.00;100631.75;5244157;28;20065;-74
2023/01/12 03:07:40;;;;;;;24.07;5.83;;;;;;;7.22;100.00;100636.94;5243898;28;20072;-73
2023/01/12 03:10:27;;;;;;;22.15;4.97;;;;;;;7.22;100.00;100636.94;5243621;28;20026;-74
2023/01/12 03:13:05;;;;;;;19.55;4.35;;;;;;;7.19;100.00;100629.16;5243920;28;20045;-73
2023/01/12 03:15:44;;;;;;;22.25;4.95;;;;;;;7.19;100.00;100608.41;5244696;28;20124;-74
2023/01/12 03:18:27;;;;;;;25.20;5.18;;;;;;;7.23;100.00;100604.97;5243965;28;20033;-75
2023/01/12 03:21:07;;;;;;;25.73;6.45;;;;;;;7.17;100.00;100607.56;5244393;28;20029;-74
2023/01/12 03:23:44;;;;;;;18.40;4.50;;;;;;;7.21;100.00;100588.56;5244398;28;20040;-74
2023/01/12 03:26:22;;;;;;;21.48;5.50;;;;;;;7.20;100.00;100584.22;5243693;28;20034;-74
2023/01/12 03:29:02;;;;;;;28.15;4.90;;;;;;;7.21;100.00;100588.56;5244316;28;20053;-74
2023/01/12 03:31:34;;;;;;;28.42;6.13;;;;;;;7.22;100.00;100584.22;5243607;28;20033;-75
2023/01/12 03:34:07;;;;;;;17.40;4.53;;;;;;;7.26;100.00;100576.44;5244206;28;20045;-74
2023/01/12 03:36:44;;;;;;;16.25;5.57;;;;;;;7.26;100.00;100586.81;5243788;28;20400;-75
2023/01/12 03:39:46;;;;;;;20.42;4.47;;;;;;;7.23;100.00;100586.81;5243431;28;20033;-76
2023/01/12 03:42:34;;;;;;;15.73;4.05;;;;;;;7.26;100.00;100557.41;5242773;28;20037;-74
2023/01/12 03:45:29;;;;;;;19.27;4.72;;;;;;;7.23;100.00;100560.88;5243820;28;20496;-76
2023/01/12 03:48:10;;;;;;;26.67;5.78;;;;;;;7.29;100.00;100540.13;5243507;28;20091;-77
2023/01/12 03:50:56;;;;;;;16.73;4.40;;;;;;;7.27;100.00;100539.25;5242738;28;20029;-75
2023/01/12 03:53:31;;;;;;;26.02;5.90;;;;;;;7.24;100.00;100533.22;5243507;28;20033;-75
2023/01/12 03:56:07;;;;;;;19.52;4.88;;;;;;;7.24;100.00;100508.16;5241776;28;20536;-75
2023/01/12 03:58:39;;;;;;;18.95;4.90;;;;;;;7.21;100.00;100487.44;5243095;28;20124;-76
2023/01/12 04:01:10;;;;;;;19.02;5.05;;;;;;;7.23;100.00;100495.19;5243259;28;20468;-76
2023/01/12 04:03:41;;;;;;;15.80;4.63;;;;;;;7.20;100.00;100485.72;5243046;28;20065;-75
2023/01/12 04:06:13;;;;;;;16.30;5.43;;;;;;;7.19;100.00;100491.75;5242972;28;20451;-76
2023/01/12 04:08:45;;;;;;;20.92;4.35;;;;;;;7.17;100.00;100483.13;5242654;28;20491;-76
2023/01/12 04:14:06;;;;;;;18.42;5.68;;;;;;;7.22;100.00;100464.97;5241371;28;20088;-76
2023/01/12 04:16:38;;;;;;;20.93;6.60;;;;;;;7.22;100.00;100459.78;5243302;28;20061;-76
2023/01/12 04:19:09;;;;;;;22.03;4.83;;;;;;;7.23;100.00;100451.13;5242760;28;20034;-75
2023/01/12 04:24:30;;;;;;;18.05;5.30;;;;;;;7.20;100.00;100448.56;5242906;28;20120;-75
2023/01/12 04:27:02;;;;;;;23.27;5.77;;;;;;;7.20;100.00;100446.84;5242572;28;20120;-76
2023/01/12 04:29:33;;;;;;;19.07;5.57;;;;;;;7.22;100.00;100464.97;5242657;28;20033;-75
2023/01/12 04:32:05;;;;;;;21.40;6.17;;;;;;;7.21;100.00;100426.94;5242385;28;20033;-76
2023/01/12 04:34:38;;;;;;;25.93;6.10;;;;;;;7.22;100.00;100420.91;5242407;28;20488;-76
2023/01/12 04:37:09;;;;;;;27.23;5.10;;;;;;;7.16;100.00;100415.75;5242325;28;20064;-75
2023/01/12 04:39:41;;;;;;;16.50;5.13;;;;;;;7.18;100.00;100409.69;5242054;28;20497;-77
2023/01/12 04:45:02;;;;;;;20.58;4.30;;;;;;;7.19;100.00;100384.63;5241497;28;20034;-80
2023/01/12 04:47:33;;;;;;;18.73;4.47;;;;;;;7.19;100.00;100397.59;5242469;28;20037;-76
2023/01/12 04:50:05;;;;;;;19.13;4.13;;;;;;;7.17;100.00;100382.03;5242329;28;20120;-76
2023/01/12 04:52:37;;;;;;;21.63;6.73;;;;;;;7.18;100.00;100364.75;5242292;28;20040;-77
2023/01/12 04:55:08;;;;;;;25.77;4.93;;;;;;;7.21;100.00;100355.25;5242086;28;20729;-76
2023/01/12 04:57:40;;;;;;;22.70;4.23;;;;;;;7.20;100.00;100348.31;5242267;28;20456;-75
2023/01/12 05:00:11;;;;;;;22.40;5.60;;;;;;;7.21;100.00;100352.66;5241957;28;20083;-75
2023/01/12 05:02:43;;;;;;;19.23;4.50;;;;;;;7.18;100.00;100362.16;5241981;28;20030;-75
2023/01/12 05:05:14;;;;;;;20.60;4.40;;;;;;;7.22;100.00;100336.19;5241918;28;20082;-75
2023/01/12 05:10:35;;;;;;;18.65;4.97;;;;;;;7.19;100.00;100372.50;5241871;28;20042;-73
2023/01/12 05:13:07;;;;;;;18.87;4.17;;;;;;;7.21;100.00;100354.34;5241500;28;20385;-73
2023/01/12 05:15:38;;;;;;;16.67;4.93;;;;;;;7.21;100.00;100331.03;5241862;28;20065;-73
2023/01/12 05:18:09;;;;;;;17.47;4.63;;;;;;;7.22;100.00;100346.56;5241789;28;20033;-74
2023/01/12 05:20:41;;;;;;;27.70;5.27;;;;;;;7.18;100.00;100344.88;5241812;28;20033;-74
2023/01/12 05:23:12;;;;;;;19.97;4.80;;;;;;;7.20;100.00;100352.66;5241536;28;20034;-73
2023/01/12 05:25:44;;;;;;;15.67;3.93;;;;;;;7.21;100.00;100355.25;5242001;28;20033;-73
2023/01/12 05:28:15;;;;;;;24.03;5.70;;;;;;;7.19;100.00;100349.19;5242245;28;20064;-74
2023/01/12 05:30:46;;;;;;;21.40;5.37;;;;;;;7.20;100.00;100332.78;5241342;28;20022;-73
2023/01/12 05:33:18;;;;;;;19.43;4.63;;;;;;;7.22;100.00;100340.53;5241599;28;20392;-72
2023/01/12 05:35:50;;;;;;;22.40;4.80;;;;;;;7.23;100.00;100332.75;5242424;28;20034;-72
2023/01/12 05:38:22;;;;;;;16.03;4.60;;;;;;;7.23;100.00;100332.75;5241775;28;20116;-72
2023/01/12 05:40:53;;;;;;;17.00;5.53;;;;;;;7.24;100.00;100337.03;5241627;28;20068;-73
2023/01/12 05:46:19;;;;;;;14.13;3.47;;;;;;;7.26;100.00;100344.81;5241770;28;20041;-73
2023/01/12 05:48:52;;;;;;;18.13;4.05;;;;;;;7.28;100.00;100324.94;5241501;28;20427;-74
2023/01/12 05:51:25;;;;;;;13.68;3.05;;;;;;;7.29;100.00;100340.50;5240032;28;20041;-73
2023/01/12 05:53:57;;;;;;;22.35;4.10;;;;;;;7.25;100.00;100343.97;5241401;28;20030;-74
2023/01/12 05:56:29;;;;;;;17.23;4.00;;;;;;;7.33;100.00;100332.69;5241799;28;20083;-74
2023/01/12 05:59:03;;;;;;;21.63;3.70;;;;;;;7.28;100.00;100333.56;5241706;28;20442;-76
2023/01/12 06:01:34;;;;;;;15.35;3.83;;;;;;;7.32;100.00;100346.53;5241381;28;20075;-74
2023/01/12 06:04:06;;;;;;;17.50;3.13;;;;;;;7.37;100.00;100332.63;5240106;28;20140;-74
2023/01/12 06:06:37;;;;;;;13.93;3.23;;;;;;;7.35;100.00;100318.84;5242239;28;20358;-74
2023/01/12 06:09:08;;;;;;;15.93;4.67;;;;;;;7.33;100.00;100312.81;5241304;28;20030;-75
2023/01/12 06:14:29;;;;;;;12.32;3.30;;;;;;;7.36;100.00;100322.28;5241646;28;20037;-74
2023/01/12 06:17:01;;;;;;;14.23;4.10;;;;;;;7.39;100.00;100338.69;5239963;28;20464;-75
2023/01/12 06:19:32;;;;;;;10.03;3.13;;;;;;;7.44;100.00;100323.13;5242695;28;20037;-74
2023/01/12 06:22:06;;;;;;;10.87;2.83;;;;;;;7.46;100.00;100318.75;5245197;28;20536;-75
2023/01/12 06:24:37;;;;;;;19.15;3.80;;;;;;;7.45;100.00;100330.88;5244949;28;20036;-75
2023/01/12 06:27:09;;;;;;;8.90;2.47;;;;;;;7.46;100.00;100335.19;5245211;28;20465;-76
2023/01/12 06:29:40;;;;;;;17.60;4.07;;;;;;;7.51;100.00;100337.75;5245091;28;20053;-75
2023/01/12 06:32:12;;;;;;;12.17;2.87;;;;;;;7.50;100.00;100351.56;5243862;28;20041;-75
2023/01/12 06:34:43;;;;;;;11.57;2.93;;;;;;;7.51;100.00;100345.53;5244458;28;20057;-76
2023/01/12 06:37:15;;;;;;;9.20;2.50;;;;;;;7.55;100.00;100328.19;5244717;28;20422;-76
2023/01/12 06:39:46;;;;;;;13.07;3.40;;;;;;;7.54;100.00;100332.53;5244675;28;20429;-75
2023/01/12 06:42:30;;;;;;;9.50;3.00;;;;;;;7.58;100.00;100338.56;5243114;28;20029;-75
2023/01/12 06:45:02;;;;;;;10.18;2.88;;;;;;;7.59;100.00;100351.50;5244670;28;20083;-76
2023/01/12 06:47:43;;;;;;;11.77;2.70;;;;;;;7.60;100.00;100353.25;5244506;28;20029;-75
2023/01/12 06:50:15;;;;;;;9.45;2.38;;;;;;;7.61;100.00;100341.13;5244421;28;20341;-76
2023/01/12 06:52:46;;;;;;;10.40;2.55;;;;;;;7.64;100.00;100348.88;5244386;28;20041;-74
2023/01/12 06:55:17;;;;;;;9.03;3.47;;;;;;;7.64;100.00;100341.97;5243691;28;20475;-75
2023/01/12 06:57:49;;;;;;;6.70;2.83;;;;;;;7.64;100.00;100348.88;5244877;28;20030;-75
2023/01/12 07:00:21;;;;;;;10.47;2.80;;;;;;;7.60;100.00;100319.53;5244286;28;20026;-76
2023/01/12 07:02:52;;;;;;;8.98;2.45;;;;;;;7.65;100.00;100345.44;5243335;28;20026;-74
2023/01/12 07:05:24;;;;;;;8.53;2.10;;;;;;;7.67;100.00;100320.31;5244712;28;20037;-75
2023/01/12 07:07:58;;;;;;;9.07;2.60;;;;;;;7.68;100.00;100335.03;5244111;28;20045;-75
2023/01/12 07:10:31;;;;;;;16.60;4.93;;;;;;;7.66;100.00;100321.19;5243987;28;20052;-74
2023/01/12 07:13:02;;;;;;;13.18;3.63;;;;;;;7.71;100.00;100332.41;5243936;28;20435;-75
2023/01/12 07:15:34;;;;;;;11.60;2.90;;;;;;;7.70;100.00;100324.66;5243801;28;20037;-74
2023/01/12 07:18:05;;;;;;;8.40;3.00;;;;;;;7.70;100.00;100327.25;5244004;28;20076;-75
2023/01/12 07:20:36;;;;;;;8.97;3.40;;;;;;;7.69;100.00;100338.47;5244213;28;20091;-74
2023/01/12 07:23:08;;;;;;;8.87;2.80;;;;;;;7.71;100.00;100344.50;5243638;28;20047;-75
2023/01/12 07:25:39;;;;;;;9.17;2.30;;;;;;;7.71;100.00;100344.50;5244105;28;20029;-75
2023/01/12 07:28:11;;;;;;;11.67;2.20;;;;;;;7.75;100.00;100354.84;5242606;28;20120;-75
2023/01/12 07:30:42;;;;;;;7.60;2.30;;;;;;;7.76;100.00;100348.78;5242244;28;20559;-76
2023/01/12 07:33:14;;;;;;;6.73;2.33;;;;;;;7.75;100.00;100346.22;5244180;28;20103;-76
2023/01/12 07:35:45;;;;;;;7.67;2.53;;;;;;;7.76;100.00;100340.13;5243396;28;20030;-75
2023/01/12 07:38:17;;;;;;;7.53;2.27;;;;;;;7.78;100.00;100341.84;5243631;28;20486;-75
2023/01/12 07:40:48;;;;;;;7.37;2.57;;;;;;;7.76;100.00;100330.63;5243505;28;20029;-75
2023/01/12 07:43:19;;;;;;;9.13;2.60;;;;;;;7.83;100.00;100357.38;5243460;28;20109;-75
2023/01/12 07:45:51;;;;;;;11.20;2.97;;;;;;;7.82;100.00;100347.88;5243431;28;20440;-74
2023/01/12 07:48:23;;;;;;;7.47;2.70;;;;;;;7.85;100.00;100355.63;5243903;28;20025;-74
2023/01/12 07:50:57;;;;;;;7.70;2.38;;;;;;;7.87;100.00;100363.41;5243298;28;20128;-75
2023/01/12 07:53:28;;;;;;;7.40;2.30;;;;;;;7.83;100.00;100366.03;5244080;28;20040;-76
2023/01/12 07:56:00;;;;;;;6.87;2.43;;;;;;;7.87;100.00;100363.41;5242039;28;20396;-75
2023/01/12 07:58:31;;;;;;;8.67;2.40;;;;;;;7.87;100.00;100359.06;5243115;28;20069;-76
2023/01/12 08:01:03;;;;;;;7.83;3.17;;;;;;;7.93;100.00;100371.16;5243004;28;20078;-76
2023/01/12 08:03:34;;;;;;;6.27;2.10;;;;;;;7.92;100.00;100367.69;5243376;28;20108;-76
2023/01/12 08:06:06;;;;;;;11.07;2.80;;;;;;;7.95;100.00;100380.66;5243069;28;20057;-74
2023/01/12 08:08:38;;;;;;;8.60;2.08;;;;;;;7.97;100.00;100375.41;5242605;28;20033;-75
2023/01/12 08:11:10;;;;;;;5.83;2.33;;;;;;;8.00;100.00;100373.69;5242608;28;20045;-75
2023/01/12 08:13:41;;;;;;;8.05;3.08;;;;;;;7.97;100.00;100383.19;5242757;28;20053;-75
2023/01/12 08:16:21;;;;;;;4.97;2.27;;;;;;;7.97;100.00;100388.41;5242586;28;20378;-74
2023/01/12 08:19:08;;;;;;;9.43;3.28;;;;;;;8.01;100.00;100406.53;5242575;28;20079;-74
2023/01/12 08:21:44;;;;;;;9.23;2.33;;;;;;;7.99;100.00;100395.31;5242731;28;20059;-76
2023/01/12 08:24:22;;;;;;;7.32;2.38;;;;;;;8.00;100.00;100399.63;5242387;28;20029;-75
2023/01/12 08:26:56;;;;;;;9.48;2.97;;;;;;;8.03;100.00;100397.03;5242413;28;20112;-74
2023/01/12 08:29:42;;;;;;;8.40;2.72;;;;;;;8.02;100.00;100413.44;5241831;28;20032;-75
2023/01/12 08:32:17;;;;;;;6.53;2.30;;;;;;;8.04;100.00;100416.88;5242531;28;20037;-75
2023/01/12 08:34:52;;;;;;;6.32;2.20;;;;;;;8.08;100.00;100412.53;5241772;28;20029;-75
2023/01/12 08:37:24;;;;;;;10.35;2.47;;;;;;;8.11;100.00;100419.44;5242236;28;20120;-74
2023/01/12 08:39:56;;;;;;;7.05;2.53;;;;;;;8.11;100.00;100406.47;5242126;28;20033;-74
2023/01/12 08:42:27;;;;;;;6.65;2.10;;;;;;;8.11;100.00;100415.09;5241542;28;20041;-76
2023/01/12 08:44:59;;;;;;;6.30;2.27;;;;;;;8.14;100.00;100422.00;5242545;28;20030;-74
2023/01/12 08:47:30;;;;;;;8.83;2.43;;;;;;;8.12;100.00;100413.38;5241980;28;20025;-74
2023/01/12 08:50:03;;;;;;;6.80;2.30;;;;;;;8.13;100.00;100422.88;5241946;28;20385;-73
2023/01/12 08:52:35;;;;;;;6.32;2.95;;;;;;;8.20;100.00;100437.53;5242457;28;20420;-74
2023/01/12 08:55:09;;;;;;;4.07;2.00;;;;;;;8.19;100.00;100434.09;5241961;28;20076;-75
2023/01/12 08:57:41;;;;;;;6.97;2.17;;;;;;;8.18;100.00;100434.97;5241849;28;20045;-75
2023/01/12 09:00:13;;;;;;;6.70;2.70;;;;;;;8.22;100.00;100418.47;5241910;28;20041;-75
2023/01/12 09:02:44;;;;;;;9.70;3.33;;;;;;;8.24;100.00;100423.63;5241735;28;20029;-75
2023/01/12 09:05:15;;;;;;;6.80;1.87;;;;;;;8.28;100.00;100430.53;5241816;28;20025;-74
2023/01/12 09:07:47;;;;;;;8.17;2.70;;;;;;;8.30;100.00;100433.97;5242026;28;20044;-75
2023/01/12 09:10:18;;;;;;;5.20;1.73;;;;;;;8.28;100.00;100442.69;5241810;28;20026;-74
2023/01/12 09:12:49;;;;;;;3.87;1.80;;;;;;;8.30;100.00;100449.56;5240117;28;20057;-74
2023/01/12 09:15:21;;;;;;;3.80;2.03;;;;;;;8.35;100.00;100442.59;5241747;28;20068;-75
2023/01/12 09:17:53;;;;;;;5.43;2.20;;;;;;;8.36;100.00;100444.31;5241862;28;20037;-75
2023/01/12 09:20:25;;;;;;;4.73;2.10;;;;;;;8.36;100.00;100449.50;5240446;28;20025;-74
2023/01/12 09:22:56;;;;;;;7.70;2.30;;;;;;;8.37;100.00;100438.25;5241962;28;20029;-75
2023/01/12 09:25:27;;;;;;;5.57;2.10;;;;;;;8.40;100.00;100445.13;5240692;28;20033;-74
2023/01/12 09:27:59;;;;;;;6.57;1.93;;;;;;;8.40;100.00;100446.03;5241209;28;20044;-74
2023/01/12 09:30:30;;;;;;;4.20;2.00;;;;;;;8.41;100.00;100470.25;5241471;28;20065;-73
2023/01/12 09:33:02;;;;;;;5.20;2.47;;;;;;;8.40;100.00;100448.63;5241866;28;20460;-75
2023/01/12 09:35:33;;;;;;;4.37;1.90;;;;;;;8.45;100.00;100451.19;5241185;28;20030;-75
2023/01/12 09:38:05;;;;;;;3.90;1.73;;;;;;;8.43;100.00;100434.75;5241374;28;20103;-76
2023/01/12 09:40:41;;;;;;;6.60;2.77;;;;;;;8.47;100.00;100464.16;5241372;28;20084;-75
2023/01/12 09:48:53;;;;;;;4.68;1.85;;;;;;;8.48;100.00;100474.53;5241614;28;20038;-74
2023/01/12 09:51:32;;;;;;;4.90;1.80;;;;;;;8.49;100.00;100472.81;5223906;28;20104;-74
2023/01/12 09:54:05;;;;;;;3.00;1.48;;;;;;;8.49;100.00;100478.88;5242601;28;20433;-74
2023/01/12 09:56:42;;;;;;;5.60;1.70;;;;;;;8.51;100.00;100478.84;5245228;28;20057;-75
2023/01/12 09:59:23;;;;;;;3.40;1.25;;;;;;;8.50;100.00;100492.72;5245318;28;20108;-74
2023/01/12 10:01:56;;;;;;;1.77;1.15;;;;;;;8.49;100.00;100480.63;5245692;28;20021;-74
2023/01/12 10:04:27;;;;;;;3.08;1.42;;;;;;;8.52;100.00;100490.97;5243524;28;20120;-74
2023/01/12 10:06:59;;;;;;;2.67;1.50;;;;;;;8.53;100.00;100487.47;5245050;28;20079;-74
2023/01/12 10:09:30;;;;;;;3.53;1.60;;;;;;;8.53;100.00;100492.69;5245463;28;20145;-75
2023/01/12 10:12:25;;;;;;;2.78;1.77;;;;;;;8.53;100.00;100474.50;5245334;28;20025;-75
2023/01/12 10:14:56;;;;;;;4.47;1.70;;;;;;;8.54;100.00;100494.41;5244661;28;20076;-75
2023/01/12 10:17:37;;;;;;;5.57;1.87;;;;;;;8.58;100.00;100491.78;5245545;28;20445;-75
2023/01/12 10:20:23;;;;;;;2.55;1.35;;;;;;;8.59;100.00;100492.63;5244895;28;20030;-75
2023/01/12 10:23:08;;;;;;;2.50;1.40;;;;;;;8.58;100.00;100494.38;5245130;28;20078;-74
2023/01/12 10:25:58;;;;;;;4.57;1.80;;;;;;;8.63;100.00;100488.25;5245560;28;20060;-74
2023/01/12 10:28:32;;;;;;;6.53;1.63;;;;;;;8.62;100.00;100490.00;5244717;28;20029;-75
2023/01/12 10:31:04;;;;;;;2.80;1.23;;;;;;;8.62;100.00;100486.56;5244436;28;20029;-75
2023/01/12 10:33:35;;;;;;;4.40;1.80;;;;;;;8.64;100.00;100490.00;5244792;28;20038;-73
2023/01/12 10:36:17;;;;;;;3.60;1.70;;;;;;;8.66;100.00;100480.44;5244431;28;20076;-74
2023/01/12 10:38:51;;;;;;;4.35;1.52;;;;;;;8.65;100.00;100487.38;5244806;28;20033;-75
2023/01/12 10:41:25;;;;;;;3.00;1.40;;;;;;;8.66;100.00;100488.22;5244329;28;20440;-74
2023/01/12 10:43:59;;;;;;;2.30;1.10;;;;;;;8.70;100.00;100495.97;5244357;28;20033;-74
2023/01/12 10:46:32;;;;;;;5.38;1.58;;;;;;;8.70;100.00;100488.19;5244026;28;20029;-74
2023/01/12 10:49:30;;;;;;;3.35;1.50;;;;;;;8.74;100.00;100492.50;5244246;28;20026;-74
2023/01/12 10:52:35;;;;;;;2.53;1.38;;;;;;;8.76;100.00;100472.53;5244671;28;20056;-74
2023/01/12 10:55:17;;;;;;;2.63;1.48;;;;;;;8.73;100.00;100469.97;5244448;28;20037;-75
2023/01/12 10:57:50;;;;;;;2.47;1.20;;;;;;;8.78;100.00;100489.88;5243390;28;20139;-74
2023/01/12 11:00:25;;;;;;;4.13;1.60;;;;;;;8.75;100.00;100491.59;5244076;28;20283;-75
2023/01/12 11:02:56;;;;;;;2.72;1.50;;;;;;;8.76;100.00;100480.34;5244202;28;20350;-75
2023/01/12 11:05:30;;;;;;;1.43;1.30;;;;;;;8.73;100.00;100480.38;5243617;28;20045;-74
2023/01/12 11:08:31;;;;;;;4.35;1.73;;;;;;;8.71;100.00;100469.13;5244504;28;20465;-76
2023/01/12 11:11:35;;;;;;;3.50;1.50;;;;;;;8.79;100.00;100486.38;5237654;28;20048;-75
2023/01/12 11:14:38;;;;;;;2.83;1.80;;;;;;;8.77;100.00;100483.78;5242100;28;20465;-75
2023/01/12 11:17:15;;;;;;;2.25;1.38;;;;;;;8.78;100.00;100484.66;5242099;28;20037;-74
2023/01/12 11:19:49;;;;;;;2.75;1.77;;;;;;;8.79;100.00;100488.97;5241955;28;20124;-74
2023/01/12 11:22:29;;;;;;;2.95;1.50;;;;;;;8.76;100.00;100477.75;5243898;28;20461;-75
2023/01/12 11:25:11;;;;;;;3.72;1.40;;;;;;;8.79;100.00;100476.84;5243406;28;20029;-77
2023/01/12 11:28:02;;;;;;;2.95;1.30;;;;;;;8.81;100.00;100484.66;5243542;28;20044;-75
2023/01/12 11:30:47;;;;;;;3.05;1.35;;;;;;;8.83;100.00;100490.69;5243345;28;20025;-75
2023/01/12 11:33:46;;;;;;;2.25;1.50;;;;;;;8.83;100.00;100478.53;5243576;28;20025;-74
2023/01/12 11:36:31;;;;;;;3.60;1.67;;;;;;;8.84;100.00;100479.38;5241816;28;20039;-75
2023/01/12 11:39:06;;;;;;;2.22;1.40;;;;;;;8.85;100.00;100478.50;5242316;28;20428;-75
2023/01/12 11:44:46;;;;;;;1.52;1.27;;;;;;;8.86;100.00;100478.50;5243578;28;20033;-74
2023/01/12 11:47:26;;;;;;;1.98;1.60;;;;;;;8.85;100.00;100468.13;5242985;28;20025;-74
2023/01/12 11:50:27;;;;;;;1.52;1.42;;;;;;;8.90;100.00;100479.31;5243153;28;20029;-73
2023/01/12 11:52:58;;;;;;;3.03;1.70;;;;;;;8.90;100.00;100474.13;5243528;28;20037;-75
2023/01/12 11:56:12;;;;;;;2.53;1.63;;;;;;;8.89;100.00;100469.81;5241575;28;20040;-75
2023/01/12 11:59:17;;;;;;;3.20;1.67;;;;;;;8.93;100.00;100463.69;5243389;28;20028;-74
2023/01/12 12:02:24;;;;;;;3.75;2.05;;;;;;;8.92;100.00;100469.78;5242812;28;20115;-74
2023/01/12 12:05:28;;;;;;;6.22;2.30;;;;;;;8.92;100.00;100459.41;5241234;28;20049;-75
2023/01/12 12:08:03;;;;;;;2.58;1.58;;;;;;;8.93;100.00;100451.59;5242194;28;20025;-74
2023/01/12 12:10:46;;;;;;;3.65;1.50;;;;;;;8.94;100.00;100452.44;5242596;28;20060;-74
2023/01/12 12:13:31;;;;;;;2.50;1.60;;;;;;;8.96;100.00;100481.00;5241017;28;20084;-74
2023/01/12 12:16:05;;;;;;;2.25;1.38;;;;;;;8.97;100.00;100456.72;5242168;28;20042;-74
2023/01/12 12:18:55;;;;;;;3.60;2.03;;;;;;;8.97;100.00;100452.41;5242114;28;20056;-73
2023/01/12 12:21:29;;;;;;;4.32;1.80;;;;;;;8.95;100.00;100446.34;5242445;28;20048;-74
2023/01/12 12:24:23;;;;;;;5.05;1.63;;;;;;;8.97;100.00;100446.31;5242419;28;20029;-74
2023/01/12 12:27:04;;;;;;;4.07;1.88;;;;;;;8.93;100.00;100464.56;5241415;28;20033;-73
2023/01/12 12:29:36;;;;;;;5.15;1.67;;;;;;;8.92;100.00;100438.59;5242448;28;20128;-74
2023/01/12 12:32:15;;;;;;;5.57;1.60;;;;;;;8.93;100.00;100451.59;5242205;28;20117;-75
2023/01/12 12:34:48;;;;;;;5.10;1.75;;;;;;;8.90;100.00;100436.00;5242679;28;20075;-73
2023/01/12 12:37:28;;;;;;;3.25;1.80;;;;;;;8.90;100.00;100429.94;5242164;28;20552;-74